createdAt,value
2019-01-21T00:00:57.401Z,101527.58
2019-01-21T00:03:21.821Z,101526.65
2019-01-21T00:05:46.236Z,101519.17
2019-01-21T00:08:10.652Z,101521.98
2019-01-21T00:10:35.166Z,101523.20
2019-01-21T00:12:59.589Z,101520.25
2019-01-21T00:15:24.188Z,101521.91
2019-01-21T00:17:48.590Z,101525.19
2019-01-21T00:20:13.141Z,101528.02
2019-01-21T00:22:37.570Z,101533.47
2019-01-21T00:25:01.980Z,101528.02
2019-01-21T00:27:26.421Z,101524.59
2019-01-21T00:29:50.834Z,101519.84
2019-01-21T00:32:24.734Z,101520.55
2019-01-21T00:34:49.158Z,101522.29
2019-01-21T00:37:13.560Z,101522.29
2019-01-21T00:39:38.007Z,101527.27
2019-01-21T00:42:02.429Z,101524.91
2019-01-21T00:44:26.867Z,101526.89
2019-01-21T00:46:51.300Z,101520.77
2019-01-21T00:49:15.732Z,101521.01
2019-01-21T00:51:40.188Z,101514.19
2019-01-21T00:54:04.575Z,101516.40
2019-01-21T00:56:28.984Z,101516.31
2019-01-21T00:58:53.407Z,101519.40
2019-01-21T01:01:17.826Z,101520.52
2019-01-21T01:03:42.226Z,101519.08
2019-01-21T01:06:06.658Z,101521.16
2019-01-21T01:08:31.084Z,101521.85
2019-01-21T01:10:55.510Z,101519.83
2019-01-21T01:13:19.928Z,101522.34
2019-01-21T01:15:44.344Z,101521.63
2019-01-21T01:18:08.752Z,101519.13
2019-01-21T01:20:33.156Z,101524.84
2019-01-21T01:22:57.577Z,101532.98
2019-01-21T01:25:21.980Z,101529.91
2019-01-21T01:27:46.458Z,101535.05
2019-01-21T01:30:13.310Z,101539.05
2019-01-21T01:32:37.896Z,101535.20
2019-01-21T01:35:02.388Z,101540.72
2019-01-21T01:37:26.813Z,101540.05
2019-01-21T01:39:51.214Z,101544.83
2019-01-21T01:42:15.624Z,101541.45
2019-01-21T01:44:40.029Z,101537.08
2019-01-21T01:47:04.568Z,101538.25
2019-01-21T01:49:28.989Z,101536.70
2019-01-21T01:51:53.383Z,101535.37
2019-01-21T01:54:17.825Z,101534.45
2019-01-21T01:56:42.296Z,101535.66
2019-01-21T01:59:06.986Z,101534.84
2019-01-21T02:01:31.386Z,101530.06
2019-01-21T02:03:55.805Z,101534.63
2019-01-21T02:06:20.208Z,101536.75
2019-01-21T02:08:44.700Z,101523.33
2019-01-21T02:11:09.179Z,101518.66
2019-01-21T02:13:33.947Z,101526.41
2019-01-21T02:15:58.367Z,101529.83
2019-01-21T02:18:23.048Z,101520.90
2019-01-21T02:20:50.555Z,101518.19
2019-01-21T02:23:16.819Z,101515.80
2019-01-21T02:25:47.258Z,101521.16
2019-01-21T02:28:29.169Z,101514.37
2019-01-21T02:31:05.549Z,101514.10
2019-01-21T02:33:41.611Z,101505.92
2019-01-21T02:36:09.105Z,101507.98
2019-01-21T02:38:51.502Z,101507.50
2019-01-21T02:41:25.006Z,101507.72
2019-01-21T02:44:03.648Z,101511.16
2019-01-21T02:46:37.072Z,101504.56
2019-01-21T02:49:10.195Z,101507.73
2019-01-21T02:51:49.691Z,101516.96
2019-01-21T02:54:17.139Z,101514.63
2019-01-21T02:57:01.275Z,101509.83
2019-01-21T02:59:51.169Z,101516.88
2019-01-21T03:02:36.157Z,101514.88
2019-01-21T03:05:14.841Z,101510.94
2019-01-21T03:08:07.365Z,101505.77
2019-01-21T03:10:37.548Z,101501.50
2019-01-21T03:13:05.013Z,101498.79
2019-01-21T03:15:35.149Z,101492.75
2019-01-21T03:18:14.430Z,101494.02
2019-01-21T03:20:58.167Z,101494.91
2019-01-21T03:23:31.337Z,101491.20
2019-01-21T03:26:15.132Z,101485.33
2019-01-21T03:29:17.357Z,101486.48
2019-01-21T03:31:59.721Z,101473.80
2019-01-21T03:34:27.151Z,101483.70
2019-01-21T03:37:09.232Z,101471.91
2019-01-21T03:39:45.697Z,101476.39
2019-01-21T03:42:19.247Z,101473.33
2019-01-21T03:45:10.809Z,101471.36
2019-01-21T03:47:38.246Z,101467.56
2019-01-21T03:50:37.059Z,101468.02
2019-01-21T03:53:10.092Z,101469.69
2019-01-21T03:55:34.934Z,101476.31
2019-01-21T03:58:08.077Z,101474.67
2019-01-21T04:00:35.537Z,101476.54
2019-01-21T04:03:03.014Z,101480.97
2019-01-21T04:05:39.053Z,101477.80
2019-01-21T04:08:15.047Z,101472.27
2019-01-21T04:11:11.063Z,101479.19
2019-01-21T04:14:12.422Z,101478.72
2019-01-21T04:17:02.485Z,101467.66
2019-01-21T04:19:44.687Z,101467.64
2019-01-21T04:22:12.131Z,101466.75
2019-01-21T04:24:42.556Z,101462.80
2019-01-21T04:27:15.714Z,101471.14
2019-01-21T04:29:57.876Z,101467.24
2019-01-21T04:32:30.858Z,101465.73
2019-01-21T04:35:03.795Z,101471.80
2019-01-21T04:37:34.460Z,101472.21
2019-01-21T04:40:02.355Z,101473.99
2019-01-21T04:43:02.513Z,101483.80
2019-01-21T04:45:38.775Z,101469.58
2019-01-21T04:48:32.976Z,101466.17
2019-01-21T04:51:08.162Z,101467.63
2019-01-21T04:53:44.496Z,101471.59
2019-01-21T04:56:20.911Z,101473.50
2019-01-21T04:58:48.365Z,101469.92
2019-01-21T05:01:18.506Z,101465.13
2019-01-21T05:04:06.850Z,101469.20
2019-01-21T05:07:04.205Z,101463.61
2019-01-21T05:09:55.760Z,101464.83
2019-01-21T05:12:34.947Z,101465.13
2019-01-21T05:15:17.155Z,101473.32
2019-01-21T05:17:59.323Z,101469.96
2019-01-21T05:20:55.186Z,101460.47
2019-01-21T05:23:42.071Z,101464.96
2019-01-21T05:26:12.168Z,101465.94
2019-01-21T05:28:42.237Z,101468.13
2019-01-21T05:31:21.076Z,101470.83
2019-01-21T05:34:16.933Z,101465.71
2019-01-21T05:37:03.423Z,101460.20
2019-01-21T05:39:39.678Z,101463.91
2019-01-21T05:42:23.706Z,101464.08
2019-01-21T05:44:57.064Z,101457.80
2019-01-21T05:47:33.431Z,101452.82
2019-01-21T05:50:32.087Z,101447.23
2019-01-21T05:53:02.535Z,101446.66
2019-01-21T05:55:56.786Z,101442.09
2019-01-21T05:58:26.922Z,101441.77
2019-01-21T06:01:15.336Z,101435.69
2019-01-21T06:03:51.650Z,101429.69
2019-01-21T06:06:24.750Z,101434.48
2019-01-21T06:08:58.106Z,101436.02
2019-01-21T06:11:34.289Z,101429.62
2019-01-21T06:14:04.630Z,101437.67
2019-01-21T06:16:40.806Z,101442.34
2019-01-21T06:19:33.793Z,101436.82
2019-01-21T06:22:01.286Z,101446.63
2019-01-21T06:24:28.743Z,101452.53
2019-01-21T06:27:20.194Z,101455.72
2019-01-21T06:30:13.038Z,101443.34
2019-01-21T06:32:59.717Z,101447.20
2019-01-21T06:35:48.213Z,101448.77
2019-01-21T06:38:24.557Z,101451.83
2019-01-21T06:41:00.683Z,101451.66
2019-01-21T06:43:30.951Z,101453.89
2019-01-21T06:46:04.096Z,101443.45
2019-01-21T06:48:52.519Z,101448.01
2019-01-21T06:51:19.980Z,101450.86
2019-01-21T06:53:53.192Z,101457.08
2019-01-21T06:56:23.430Z,101453.17
2019-01-21T06:59:02.503Z,101456.28
2019-01-21T07:01:38.775Z,101451.91
2019-01-21T07:04:27.062Z,101457.23
2019-01-21T07:07:16.793Z,101464.44
2019-01-21T07:09:58.999Z,101472.81
2019-01-21T07:12:44.489Z,101471.91
2019-01-21T07:15:26.947Z,101455.23
2019-01-21T07:18:12.391Z,101469.70
2019-01-21T07:20:42.839Z,101471.40
2019-01-21T07:23:19.016Z,101468.19
2019-01-21T07:25:52.387Z,101471.03
2019-01-21T07:28:25.510Z,101475.42
2019-01-21T07:31:12.561Z,101475.34
2019-01-21T07:33:40.016Z,101474.80
2019-01-21T07:36:22.317Z,101469.08
2019-01-21T07:38:52.375Z,101467.00
2019-01-21T07:41:28.695Z,101467.07
2019-01-21T07:43:58.849Z,101469.36
2019-01-21T07:46:35.010Z,101468.72
2019-01-21T07:49:26.494Z,101468.08
2019-01-21T07:52:20.285Z,101469.78
2019-01-21T07:54:53.553Z,101460.59
2019-01-21T07:57:45.975Z,101457.66
2019-01-21T08:00:31.151Z,101455.73
2019-01-21T08:03:01.659Z,101446.55
2019-01-21T08:05:50.024Z,101457.27
2019-01-21T08:08:35.112Z,101453.03
2019-01-21T08:11:05.365Z,101451.42
2019-01-21T08:13:41.448Z,101457.80
2019-01-21T08:16:11.595Z,101462.76
2019-01-21T08:18:55.619Z,101467.77
2019-01-21T08:21:43.901Z,101464.28
2019-01-21T08:24:13.898Z,101460.84
2019-01-21T08:26:41.360Z,101463.64
2019-01-21T08:29:14.629Z,101459.00
2019-01-21T08:31:59.953Z,101463.13
2019-01-21T08:34:50.128Z,101462.36
2019-01-21T08:37:23.657Z,101464.66
2019-01-21T08:39:56.785Z,101468.75
2019-01-21T08:42:33.160Z,101474.34
2019-01-21T08:45:03.259Z,101477.33
2019-01-21T08:47:39.338Z,101473.18
2019-01-21T08:50:18.706Z,101474.41
2019-01-21T08:52:51.705Z,101459.55
2019-01-21T08:55:21.963Z,101454.84
2019-01-21T08:57:52.048Z,101443.89
2019-01-21T09:00:52.266Z,101446.50
2019-01-21T09:03:22.684Z,101442.93
2019-01-21T09:05:54.563Z,101433.13
2019-01-21T09:08:41.335Z,101426.33
2019-01-21T09:13:55.906Z,101444.45
2019-01-21T09:16:41.110Z,101448.56
2019-01-21T09:22:23.473Z,101434.69
2019-01-21T09:25:26.516Z,101437.37
2019-01-21T09:28:11.714Z,101429.56
2019-01-21T09:31:14.791Z,101429.75
2019-01-21T09:42:51.629Z,101418.88
2019-01-21T09:45:28.122Z,101419.11
2019-01-21T09:47:51.387Z,101410.72
2019-01-21T09:50:26.906Z,101403.12
2019-01-21T09:55:31.155Z,101399.73
2019-01-21T10:00:52.591Z,101407.27
2019-01-21T10:03:17.350Z,101399.23
2019-01-21T10:14:52.826Z,101404.84
2019-01-21T10:17:55.880Z,101413.39
2019-01-21T10:20:51.308Z,101424.34
2019-01-21T10:23:54.317Z,101425.24
2019-01-21T10:26:57.326Z,101422.63
2019-01-21T10:30:00.361Z,101425.35
2019-01-21T10:32:45.583Z,101412.02
2019-01-21T10:38:45.749Z,101402.72
2019-01-21T10:47:25.105Z,101389.49
2019-01-21T10:50:28.135Z,101378.25
2019-01-21T10:53:13.395Z,101374.91
2019-01-21T11:05:07.595Z,101352.67
2019-01-21T11:11:07.870Z,101338.99
2019-01-21T11:20:04.605Z,101338.58
2019-01-21T11:22:42.124Z,101344.16
2019-01-21T11:25:45.084Z,101336.66
2019-01-21T11:28:48.113Z,101342.80
2019-01-21T11:31:52.994Z,101341.59
2019-01-21T11:37:53.050Z,101334.24
2019-01-21T11:49:47.359Z,101311.98
2019-01-21T11:58:44.024Z,101300.16
2019-01-21T12:04:26.209Z,101286.40
2019-01-21T12:13:42.761Z,101212.60
2019-01-21T12:16:45.813Z,101256.20
2019-01-21T12:22:45.655Z,101264.23
2019-01-21T12:28:45.838Z,101260.63
2019-01-21T12:31:48.871Z,101254.14
2019-01-21T12:34:52.078Z,101198.98
2019-01-21T12:46:27.801Z,101227.44
2019-01-21T12:49:16.066Z,101229.72
2019-01-21T12:52:01.349Z,101231.97
2019-01-21T12:58:01.584Z,101231.47
2019-01-21T13:06:58.793Z,101224.92
2019-01-21T13:12:58.512Z,101206.13
2019-01-21T13:21:54.827Z,101206.06
2019-01-21T13:27:54.161Z,101203.52
2019-01-21T13:33:53.627Z,101185.23
2019-01-21T13:36:48.898Z,101179.13
2019-01-21T13:39:51.920Z,101164.66
2019-01-21T13:48:31.648Z,101155.22
2019-01-21T13:54:14.183Z,101164.15
2019-01-21T14:00:06.223Z,101147.94
2019-01-21T14:09:03.565Z,101149.88
2019-01-21T14:12:06.546Z,101154.81
2019-01-21T14:18:06.891Z,101169.67
2019-01-21T14:21:11.164Z,101170.47
2019-01-21T14:33:04.380Z,101149.83
2019-01-21T14:36:07.408Z,101153.72
2019-01-21T14:42:07.394Z,101144.31
2019-01-21T14:56:57.332Z,101110.38
2019-01-21T15:05:54.111Z,101116.84
2019-01-21T15:17:48.331Z,101099.92
2019-01-21T15:23:48.316Z,101091.69
2019-01-21T15:32:44.608Z,101101.50
2019-01-21T15:41:41.465Z,101092.64
2019-01-21T15:50:38.083Z,101082.38
2019-01-21T15:53:41.116Z,101086.31
2019-01-21T16:05:35.349Z,101093.16
2019-01-21T16:08:20.577Z,101093.95
2019-01-21T16:11:23.614Z,101089.20
2019-01-21T16:14:08.850Z,101092.13
2019-01-21T16:23:05.998Z,101079.47
2019-01-21T16:31:44.271Z,101071.30
2019-01-21T16:34:47.290Z,101074.37
2019-01-21T16:40:47.507Z,101077.19
2019-01-21T16:43:11.965Z,101072.58
2019-01-21T16:45:36.375Z,101068.46
2019-01-21T16:48:00.833Z,101062.69
2019-01-21T16:50:25.249Z,101052.70
2019-01-21T16:52:49.664Z,101059.32
2019-01-21T16:55:14.197Z,101056.37
2019-01-21T16:57:59.403Z,101061.25
2019-01-21T17:00:23.810Z,101060.83
2019-01-21T17:02:48.240Z,101058.17
2019-01-21T17:08:09.215Z,101061.74
2019-01-21T17:10:39.166Z,101065.28
2019-01-21T17:13:05.191Z,101058.53
2019-01-21T17:15:29.631Z,101061.63
2019-01-21T17:17:54.036Z,101057.81
2019-01-21T17:20:39.273Z,101062.58
2019-01-21T17:23:03.703Z,101064.94
2019-01-21T17:25:28.187Z,101057.87
2019-01-21T17:27:52.638Z,101060.89
2019-01-21T17:30:37.838Z,101058.24
2019-01-21T17:33:02.269Z,101062.55
2019-01-21T17:35:26.696Z,101053.19
2019-01-21T17:37:51.152Z,101047.88
2019-01-21T17:43:12.683Z,101052.63
2019-01-21T17:45:37.098Z,101045.62
2019-01-21T17:48:01.648Z,101043.49
2019-01-21T17:50:26.097Z,101043.86
2019-01-21T17:52:50.527Z,101043.86
2019-01-21T17:55:15.371Z,101042.27
2019-01-21T17:57:39.788Z,101050.55
2019-01-21T18:00:24.997Z,101048.58
2019-01-21T18:02:49.413Z,101049.30
2019-01-21T18:05:13.950Z,101038.31
2019-01-21T18:07:38.514Z,101040.11
2019-01-21T18:10:02.993Z,101051.11
2019-01-21T18:12:27.415Z,101045.56
2019-01-21T18:14:51.868Z,101044.58
2019-01-21T18:17:37.060Z,101046.51
2019-01-21T18:20:01.484Z,101048.02
2019-01-21T18:22:25.888Z,101046.98
2019-01-21T18:24:50.331Z,101036.63
2019-01-21T18:27:14.724Z,101038.08
2019-01-21T18:32:14.952Z,101036.23
2019-01-21T18:34:39.349Z,101034.63
2019-01-21T18:37:04.027Z,101028.88
2019-01-21T18:39:28.459Z,101037.99
2019-01-21T18:44:29.458Z,101033.28
2019-01-21T18:46:53.930Z,101041.02
2019-01-21T18:49:22.818Z,101032.98
2019-01-21T18:51:50.152Z,101027.41
2019-01-21T18:54:14.564Z,101021.31
2019-01-21T18:56:38.980Z,101019.26
2019-01-21T18:59:03.392Z,101023.19
2019-01-21T19:01:27.800Z,101022.98
2019-01-21T19:03:52.248Z,101027.60
2019-01-21T19:06:16.647Z,101026.56
2019-01-21T19:08:41.208Z,101032.51
2019-01-21T19:11:05.632Z,101028.81
2019-01-21T19:13:30.059Z,101023.26
2019-01-21T19:15:54.537Z,101025.67
2019-01-21T19:18:19.012Z,101030.37
2019-01-21T19:20:43.523Z,101028.02
2019-01-21T19:23:07.977Z,101019.03
2019-01-21T19:25:32.478Z,101019.97
2019-01-21T19:30:32.794Z,101020.59
2019-01-21T19:32:57.288Z,101020.02
2019-01-21T19:38:18.368Z,101023.75
2019-01-21T19:40:42.849Z,101019.66
2019-01-21T19:43:07.262Z,101012.70
2019-01-21T19:45:31.741Z,101010.17
2019-01-21T19:47:56.170Z,101005.42
2019-01-21T19:53:17.786Z,101002.80
2019-01-21T19:58:38.713Z,101001.97
2019-01-21T20:01:03.141Z,101004.05
2019-01-21T20:03:27.564Z,100995.87
2019-01-21T20:05:52.033Z,100993.69
2019-01-21T20:08:16.542Z,100990.94
2019-01-21T20:14:14.413Z,100981.88
2019-01-21T20:16:38.940Z,100982.33
2019-01-21T20:19:03.380Z,100977.09
2019-01-21T20:21:27.804Z,100968.80
2019-01-21T20:23:52.271Z,100970.97
2019-01-21T20:26:16.690Z,100968.23
2019-01-21T20:28:41.129Z,100981.24
2019-01-21T20:31:05.556Z,100970.02
2019-01-21T20:33:29.993Z,100971.04
2019-01-21T20:35:54.416Z,100972.70
2019-01-21T20:38:18.834Z,100971.11
2019-01-21T20:40:43.261Z,100917.97
2019-01-21T20:43:07.677Z,100966.53
2019-01-21T20:45:32.193Z,100969.50
2019-01-21T20:47:56.667Z,100974.27
2019-01-21T20:53:17.616Z,100961.98
2019-01-21T20:55:42.065Z,100959.84
2019-01-21T20:58:06.461Z,100968.67
2019-01-21T21:00:51.663Z,100965.02
2019-01-21T21:03:16.070Z,100961.25
2019-01-21T21:05:40.554Z,100965.52
2019-01-21T21:08:05.099Z,100961.47
2019-01-21T21:13:08.881Z,100957.89
2019-01-21T21:18:30.891Z,100960.01
2019-01-21T21:20:55.322Z,100948.02
2019-01-21T21:23:19.780Z,100954.67
2019-01-21T21:25:49.501Z,100956.80
2019-01-21T21:28:13.925Z,100963.75
2019-01-21T21:30:38.409Z,100955.84
2019-01-21T21:33:03.250Z,100955.97
2019-01-21T21:35:27.826Z,100952.13
2019-01-21T21:37:52.398Z,100957.27
2019-01-21T21:40:37.588Z,100953.89
2019-01-21T21:43:02.150Z,100950.67
2019-01-21T21:45:27.905Z,100946.30
2019-01-21T21:48:02.876Z,100943.34
2019-01-21T21:53:24.101Z,100944.36
2019-01-21T21:55:48.512Z,100942.78
2019-01-21T21:58:13.041Z,100945.37
2019-01-21T22:00:37.687Z,100946.42
2019-01-21T22:03:02.190Z,100937.66
2019-01-21T22:05:26.698Z,100941.16
2019-01-21T22:07:51.227Z,100939.56
2019-01-21T22:10:36.452Z,100931.13
2019-01-21T22:13:00.938Z,100929.31
2019-01-21T22:18:22.045Z,100924.45
2019-01-21T22:20:46.493Z,100924.76
2019-01-21T22:23:10.918Z,100921.76
2019-01-21T22:25:35.369Z,100923.48
2019-01-21T22:27:59.787Z,100914.84
2019-01-21T22:33:20.999Z,100919.16
2019-01-21T22:35:45.404Z,100911.19
2019-01-21T22:38:22.362Z,100912.53
2019-01-21T22:40:46.800Z,100906.98
2019-01-21T22:43:11.207Z,100904.99
2019-01-21T22:45:36.040Z,100910.38
2019-01-21T22:48:00.476Z,100905.52
2019-01-21T22:50:24.871Z,100907.16
2019-01-21T22:52:49.287Z,100905.72
2019-01-21T22:55:26.107Z,100898.04
2019-01-21T22:57:50.570Z,100901.33
2019-01-21T23:06:08.408Z,100894.02
2019-01-21T23:08:32.825Z,100896.27
2019-01-21T23:10:57.302Z,100898.97
2019-01-21T23:13:21.741Z,100891.74
2019-01-21T23:15:46.149Z,100888.55
2019-01-21T23:18:10.658Z,100895.23
2019-01-21T23:20:48.696Z,100894.06
2019-01-21T23:23:13.168Z,100889.31
2019-01-21T23:25:37.591Z,100886.64
2019-01-21T23:28:02.027Z,100883.57
2019-01-21T23:30:26.506Z,100882.73
2019-01-21T23:32:50.994Z,100875.69
2019-01-21T23:35:15.499Z,100877.64
2019-01-21T23:37:39.894Z,100874.03
2019-01-21T23:43:01.957Z,100867.02
2019-01-21T23:45:26.372Z,100867.03
2019-01-21T23:47:50.786Z,100859.29
2019-01-21T23:53:12.127Z,100856.85
2019-01-21T23:55:36.576Z,100851.84
2019-01-21T23:58:00.986Z,100853.43
